Time;durP1;ratioP1;P1;durP2;ratioP2;P2;SDS_P1;SDS_P2;PMS_P1;PMS_P2;Temp;Humidity;BMP_temperature;BMP_pressure;BME280_temperature;BME280_humidity;BME280_pressure;Samples;Min_cycle;Max_cycle;Signal;HPM_P1;HPM_P2
2022/04/28 00:00:27;;;;;;;10.68;4.03;;;;;;;;;;5064625;28;20107;-77
2022/04/28 00:02:54;;;;;;;12.60;3.80;;;;;;;;;;5065821;28;20534;-77
2022/04/28 00:08:25;;;;;;;10.45;3.95;;;;;;;;;;5044809;28;20587;-78
2022/04/28 00:10:51;;;;;;;8.90;4.35;;;;;;;;;;5048526;28;20057;-78
2022/04/28 00:13:18;;;;;;;12.35;4.20;;;;;;;;;;5057687;28;20064;-78
2022/04/28 00:15:45;;;;;;;7.40;4.05;;;;;;;;;;5058243;28;20195;-78
2022/04/28 00:18:11;;;;;;;9.75;3.75;;;;;;;;;;5048446;28;20479;-78
2022/04/28 00:20:37;;;;;;;11.00;4.18;;;;;;;;;;5046790;28;20056;-78
2022/04/28 00:23:04;;;;;;;10.10;3.97;;;;;;;;;;5050453;28;20242;-78
2022/04/28 00:25:30;;;;;;;11.00;4.82;;;;;;;;;;5048199;28;20049;-78
2022/04/28 00:27:57;;;;;;;12.85;4.38;;;;;;;;;;5047087;28;20605;-78
2022/04/28 00:30:23;;;;;;;10.77;4.20;;;;;;;;;;5048218;28;20054;-78
2022/04/28 00:32:50;;;;;;;9.80;4.35;;;;;;;;;;5050112;28;20514;-78
2022/04/28 00:35:16;;;;;;;9.00;4.05;;;;;;;;;;5063676;28;20458;-78
2022/04/28 00:37:43;;;;;;;11.15;4.28;;;;;;;;;;5044223;28;20053;-78
2022/04/28 00:40:10;;;;;;;12.30;4.40;;;;;;;;;;5046201;28;20149;-78
2022/04/28 00:42:36;;;;;;;10.38;4.18;;;;;;;;;;5045399;28;20148;-78
2022/04/28 00:45:02;;;;;;;10.43;4.47;;;;;;;;;;5050234;28;20057;-78
2022/04/28 00:52:59;;;;;;;10.07;4.82;;;;;;;;;;5052209;28;20082;-78
2022/04/28 00:55:27;;;;;;;8.93;4.70;;;;;;;;;;5053101;28;20049;-78
2022/04/28 00:57:53;;;;;;;8.40;4.50;;;;;;;;;;5068559;28;20054;-78
2022/04/28 01:00:19;;;;;;;7.75;4.13;;;;;;;;;;5053672;28;20053;-78
2022/04/28 01:02:46;;;;;;;8.07;4.00;;;;;;;;;;5052823;28;20053;-79
2022/04/28 01:05:12;;;;;;;10.20;4.03;;;;;;;;;;5049825;28;20048;-78
2022/04/28 01:07:39;;;;;;;10.88;4.50;;;;;;;;;;5052502;28;20057;-78
2022/04/28 01:10:05;;;;;;;7.78;4.10;;;;;;;;;;5053179;28;20137;-78
2022/04/28 01:12:32;;;;;;;11.27;4.78;;;;;;;;;;5052206;28;20136;-78
2022/04/28 01:14:59;;;;;;;8.73;3.92;;;;;;;;;;5052748;28;20058;-78
2022/04/28 01:17:25;;;;;;;11.05;4.07;;;;;;;;;;5052326;28;20057;-78
2022/04/28 01:19:51;;;;;;;8.50;3.80;;;;;;;;;;5070420;28;20599;-78
2022/04/28 01:22:18;;;;;;;9.30;4.55;;;;;;;;;;5054381;28;20156;-78
2022/04/28 01:24:44;;;;;;;11.82;4.68;;;;;;;;;;5054414;28;20057;-78
2022/04/28 01:27:12;;;;;;;11.07;4.22;;;;;;;;;;5035069;28;20061;-78
2022/04/28 01:29:39;;;;;;;10.65;4.90;;;;;;;;;;5032906;28;20057;-78
2022/04/28 01:32:05;;;;;;;11.07;4.72;;;;;;;;;;5053892;28;20067;-78
2022/04/28 01:34:32;;;;;;;9.93;4.47;;;;;;;;;;5054162;28;20093;-78
2022/04/28 01:36:59;;;;;;;11.70;4.53;;;;;;;;;;5065074;28;20053;-78
2022/04/28 01:39:25;;;;;;;10.73;4.28;;;;;;;;;;5049650;28;20108;-78
2022/04/28 01:41:51;;;;;;;10.60;4.70;;;;;;;;;;5052613;28;20061;-78
2022/04/28 01:44:18;;;;;;;9.57;4.10;;;;;;;;;;5053465;28;20053;-78
2022/04/28 01:46:44;;;;;;;10.93;4.53;;;;;;;;;;5052707;28;20077;-78
2022/04/28 01:49:11;;;;;;;9.73;4.35;;;;;;;;;;5048889;28;20054;-78
2022/04/28 01:57:07;;;;;;;11.48;4.80;;;;;;;;;;5040636;28;20105;-78
2022/04/28 01:59:33;;;;;;;8.85;4.45;;;;;;;;;;5053150;28;20083;-78
2022/04/28 02:02:00;;;;;;;12.68;4.70;;;;;;;;;;5051995;28;20167;-78
2022/04/28 02:04:26;;;;;;;10.55;5.13;;;;;;;;;;5051912;28;20099;-78
2022/04/28 02:06:53;;;;;;;8.23;4.53;;;;;;;;;;5068253;28;20053;-78
2022/04/28 02:09:19;;;;;;;10.45;4.28;;;;;;;;;;5046615;28;20057;-78
2022/04/28 02:11:45;;;;;;;10.63;4.57;;;;;;;;;;5053294;28;20056;-78
2022/04/28 02:14:12;;;;;;;8.23;4.38;;;;;;;;;;5068873;28;20084;-78
2022/04/28 02:16:38;;;;;;;8.32;3.95;;;;;;;;;;5052262;28;20061;-78
2022/04/28 02:19:05;;;;;;;11.40;4.43;;;;;;;;;;5051279;28;20089;-78
2022/04/28 02:21:31;;;;;;;9.50;4.80;;;;;;;;;;5049017;28;20531;-78
2022/04/28 02:23:57;;;;;;;9.30;3.95;;;;;;;;;;5051356;28;20144;-78
2022/04/28 02:26:24;;;;;;;8.45;4.20;;;;;;;;;;5051160;28;20307;-78
2022/04/28 02:28:50;;;;;;;8.80;4.28;;;;;;;;;;5050454;28;20444;-78
2022/04/28 02:31:17;;;;;;;11.13;4.97;;;;;;;;;;5052003;28;20852;-78
2022/04/28 02:33:44;;;;;;;13.50;4.68;;;;;;;;;;5054006;28;20093;-78
2022/04/28 02:36:12;;;;;;;9.02;4.55;;;;;;;;;;5053008;28;20688;-78
2022/04/28 02:38:38;;;;;;;9.65;4.65;;;;;;;;;;5051153;28;20053;-78
2022/04/28 02:41:04;;;;;;;10.07;4.38;;;;;;;;;;5053198;28;20054;-78
2022/04/28 02:43:30;;;;;;;8.57;4.65;;;;;;;;;;5053786;28;20067;-78
2022/04/28 02:45:58;;;;;;;10.38;4.57;;;;;;;;;;5069186;28;20099;-78
2022/04/28 02:48:25;;;;;;;9.98;4.43;;;;;;;;;;5059034;28;20049;-78
2022/04/28 02:50:52;;;;;;;8.23;4.13;;;;;;;;;;5068365;28;20073;-79
2022/04/28 02:53:18;;;;;;;13.77;5.20;;;;;;;;;;5052831;28;20129;-78
2022/04/28 02:55:45;;;;;;;9.93;4.15;;;;;;;;;;5052087;28;20140;-78
2022/04/28 02:58:11;;;;;;;10.57;4.20;;;;;;;;;;5051355;28;20136;-78
2022/04/28 03:00:38;;;;;;;7.45;4.25;;;;;;;;;;5050974;28;20088;-78
2022/04/28 03:03:04;;;;;;;12.43;4.45;;;;;;;;;;5052709;28;20049;-78
2022/04/28 03:05:31;;;;;;;8.38;3.83;;;;;;;;;;5069586;28;20046;-78
2022/04/28 03:10:54;;;;;;;10.95;4.35;;;;;;;;;;5046888;28;20144;-79
2022/04/28 03:13:22;;;;;;;10.45;4.03;;;;;;;;;;5051484;28;20845;-78
2022/04/28 03:15:49;;;;;;;10.20;4.55;;;;;;;;;;5051982;28;20148;-78
2022/04/28 03:18:16;;;;;;;9.57;4.95;;;;;;;;;;5053298;28;20128;-78
2022/04/28 03:20:43;;;;;;;8.82;4.82;;;;;;;;;;5068385;28;20097;-78
2022/04/28 03:23:11;;;;;;;11.15;5.15;;;;;;;;;;5052720;28;20148;-78
2022/04/28 03:25:38;;;;;;;9.52;4.72;;;;;;;;;;5053051;28;20204;-78
2022/04/28 03:28:04;;;;;;;12.02;5.07;;;;;;;;;;5050853;28;20515;-78
2022/04/28 03:30:31;;;;;;;10.57;5.10;;;;;;;;;;5052830;28;20172;-78
2022/04/28 03:32:57;;;;;;;12.20;5.10;;;;;;;;;;5053114;28;20220;-78
2022/04/28 03:35:24;;;;;;;10.75;4.55;;;;;;;;;;5052773;28;20057;-78
2022/04/28 03:37:50;;;;;;;10.30;5.25;;;;;;;;;;5049740;28;20136;-78
2022/04/28 03:40:17;;;;;;;10.80;5.00;;;;;;;;;;5050412;28;20085;-78
2022/04/28 03:42:43;;;;;;;9.55;4.78;;;;;;;;;;5051913;28;20056;-78
2022/04/28 03:45:11;;;;;;;12.68;5.20;;;;;;;;;;5053833;28;20093;-78
2022/04/28 03:47:37;;;;;;;9.15;4.93;;;;;;;;;;5052488;28;20116;-78
2022/04/28 03:50:04;;;;;;;10.70;5.57;;;;;;;;;;5050614;28;20056;-78
2022/04/28 03:52:31;;;;;;;11.50;5.40;;;;;;;;;;5068060;28;20101;-78
2022/04/28 03:54:57;;;;;;;16.00;5.22;;;;;;;;;;5051759;28;20556;-78
2022/04/28 03:57:24;;;;;;;10.05;4.90;;;;;;;;;;5052016;28;20553;-78
2022/04/28 03:59:50;;;;;;;11.02;5.40;;;;;;;;;;5053706;28;20088;-78
2022/04/28 04:02:16;;;;;;;10.63;4.85;;;;;;;;;;5052895;28;20046;-79
2022/04/28 04:04:43;;;;;;;11.88;5.30;;;;;;;;;;5048175;28;20030;-78
2022/04/28 04:07:10;;;;;;;9.57;4.90;;;;;;;;;;5043880;28;20137;-78
2022/04/28 04:09:37;;;;;;;13.60;4.90;;;;;;;;;;5052832;28;20140;-78
2022/04/28 04:12:05;;;;;;;10.98;4.88;;;;;;;;;;5052934;28;20133;-78
2022/04/28 04:14:32;;;;;;;10.45;4.95;;;;;;;;;;5069685;28;20067;-78
2022/04/28 04:16:59;;;;;;;12.82;4.88;;;;;;;;;;5052240;28;20132;-79
2022/04/28 04:19:25;;;;;;;12.40;5.45;;;;;;;;;;5051195;28;20108;-80
2022/04/28 04:21:51;;;;;;;10.23;4.70;;;;;;;;;;5051545;28;20084;-79
2022/04/28 04:24:18;;;;;;;8.10;4.90;;;;;;;;;;5050558;28;20054;-79
2022/04/28 04:26:44;;;;;;;9.98;5.00;;;;;;;;;;5052861;28;20764;-79
2022/04/28 04:29:12;;;;;;;12.23;5.10;;;;;;;;;;5049817;28;20095;-78
2022/04/28 04:34:23;;;;;;;10.52;4.60;;;;;;;;;;5052149;28;20434;-79
2022/04/28 04:36:50;;;;;;;11.82;4.78;;;;;;;;;;5065937;28;20072;-79
2022/04/28 04:39:16;;;;;;;12.80;4.93;;;;;;;;;;5047395;28;20041;-79
2022/04/28 04:41:42;;;;;;;17.40;5.60;;;;;;;;;;5050655;28;20050;-79
2022/04/28 04:44:13;;;;;;;11.60;4.95;;;;;;;;;;5053204;28;20060;-78
2022/04/28 04:46:40;;;;;;;10.95;5.32;;;;;;;;;;5052059;28;20069;-78
2022/04/28 04:49:07;;;;;;;8.65;4.82;;;;;;;;;;5051270;28;20053;-79
2022/04/28 04:51:34;;;;;;;16.67;5.78;;;;;;;;;;5048957;28;20627;-78
2022/04/28 04:54:00;;;;;;;14.25;5.57;;;;;;;;;;5053343;28;20156;-79
2022/04/28 04:56:27;;;;;;;13.80;5.47;;;;;;;;;;5045604;28;20041;-79
2022/04/28 04:58:53;;;;;;;13.35;5.10;;;;;;;;;;5051277;28;20144;-79
2022/04/28 05:01:19;;;;;;;10.05;5.10;;;;;;;;;;5049716;28;20517;-79
2022/04/28 05:06:28;;;;;;;12.98;5.45;;;;;;;;;;5048290;22;20605;-78
2022/04/28 05:08:54;;;;;;;12.75;5.28;;;;;;;;;;5001197;28;20053;-78
2022/04/28 05:11:21;;;;;;;14.85;5.88;;;;;;;;;;4998345;28;20047;-78
2022/04/28 05:13:47;;;;;;;12.98;5.80;;;;;;;;;;4998383;28;20557;-79
2022/04/28 05:16:14;;;;;;;14.63;5.63;;;;;;;;;;5006924;28;20536;-79
2022/04/28 05:18:40;;;;;;;13.05;5.57;;;;;;;;;;5005853;28;20140;-79
2022/04/28 05:21:07;;;;;;;13.20;5.70;;;;;;;;;;5008670;28;20420;-78
2022/04/28 05:23:33;;;;;;;12.75;5.88;;;;;;;;;;5005083;28;20146;-78
2022/04/28 05:25:59;;;;;;;14.57;6.50;;;;;;;;;;5007699;28;20282;-79
2022/04/28 05:28:29;;;;;;;16.15;6.10;;;;;;;;;;5021873;28;20446;-79
2022/04/28 05:30:55;;;;;;;12.70;5.95;;;;;;;;;;5008357;28;20058;-78
2022/04/28 05:33:22;;;;;;;13.18;5.85;;;;;;;;;;5009163;28;20073;-78
2022/04/28 05:35:49;;;;;;;10.70;6.00;;;;;;;;;;5011305;28;20540;-79
2022/04/28 05:38:15;;;;;;;12.30;6.07;;;;;;;;;;5009487;28;20089;-78
2022/04/28 05:40:42;;;;;;;12.35;6.15;;;;;;;;;;5006826;28;20887;-78
2022/04/28 05:45:55;;;;;;;13.23;5.90;;;;;;;;;;5002206;28;20117;-79
2022/04/28 05:48:22;;;;;;;19.55;6.97;;;;;;;;;;5010773;28;20066;-79
2022/04/28 05:50:48;;;;;;;19.40;6.75;;;;;;;;;;5011655;28;20129;-78
2022/04/28 05:53:15;;;;;;;16.80;7.20;;;;;;;;;;5012381;28;20054;-79
2022/04/28 05:55:41;;;;;;;17.13;6.97;;;;;;;;;;5012421;28;20058;-79
2022/04/28 05:58:08;;;;;;;16.80;7.30;;;;;;;;;;5010238;28;20058;-79
2022/04/28 06:00:34;;;;;;;18.50;7.10;;;;;;;;;;5008876;28;20134;-78
2022/04/28 06:03:01;;;;;;;15.50;6.95;;;;;;;;;;5007943;28;20066;-78
2022/04/28 06:05:28;;;;;;;15.02;7.45;;;;;;;;;;5005849;28;20200;-79
2022/04/28 06:07:54;;;;;;;15.77;7.28;;;;;;;;;;5011691;28;20088;-78
2022/04/28 06:10:21;;;;;;;16.30;7.22;;;;;;;;;;5009059;28;20050;-78
2022/04/28 06:12:47;;;;;;;15.63;7.30;;;;;;;;;;5011145;28;20051;-79
2022/04/28 06:15:14;;;;;;;20.55;7.50;;;;;;;;;;5013148;28;20895;-78
2022/04/28 06:17:40;;;;;;;18.45;7.47;;;;;;;;;;5011131;28;20054;-79
2022/04/28 06:20:07;;;;;;;17.38;6.38;;;;;;;;;;5012899;28;20129;-78
2022/04/28 06:22:42;;;;;;;17.52;6.68;;;;;;;;;;5008014;28;20055;-79
2022/04/28 06:25:09;;;;;;;20.38;7.38;;;;;;;;;;5012656;28;20051;-79
2022/04/28 06:27:36;;;;;;;19.27;7.25;;;;;;;;;;5010712;28;20116;-79
2022/04/28 06:30:03;;;;;;;13.63;6.72;;;;;;;;;;5013756;28;20085;-79
2022/04/28 06:32:29;;;;;;;17.38;7.05;;;;;;;;;;5010268;28;20197;-79
2022/04/28 06:34:56;;;;;;;13.95;6.38;;;;;;;;;;5010504;28;20066;-79
2022/04/28 06:37:23;;;;;;;14.70;6.57;;;;;;;;;;5010979;28;20149;-79
2022/04/28 06:39:50;;;;;;;13.13;5.90;;;;;;;;;;5009844;28;20054;-79
2022/04/28 06:42:16;;;;;;;13.32;5.95;;;;;;;;;;5010048;28;20068;-79
2022/04/28 06:44:42;;;;;;;14.80;5.63;;;;;;;;;;5011211;28;20508;-77
2022/04/28 06:47:09;;;;;;;13.40;5.30;;;;;;;;;;5007605;28;20941;-79
2022/04/28 06:49:37;;;;;;;12.88;5.45;;;;;;;;;;5007959;28;20138;-79
2022/04/28 06:52:03;;;;;;;14.75;5.30;;;;;;;;;;5008101;28;20543;-77
2022/04/28 06:54:30;;;;;;;11.77;4.75;;;;;;;;;;5009945;28;20054;-77
2022/04/28 06:56:57;;;;;;;11.73;4.72;;;;;;;;;;5008350;28;20064;-78
2022/04/28 06:59:23;;;;;;;17.00;5.30;;;;;;;;;;5008223;28;20054;-78
2022/04/28 07:01:50;;;;;;;12.65;4.47;;;;;;;;;;5023043;28;20054;-78
2022/04/28 07:04:17;;;;;;;14.70;5.18;;;;;;;;;;5010961;28;20663;-77
2022/04/28 07:06:43;;;;;;;15.88;4.32;;;;;;;;;;5009727;28;20066;-77
2022/04/28 07:09:16;;;;;;;9.32;4.35;;;;;;;;;;5009157;28;20061;-77
2022/04/28 07:11:43;;;;;;;14.25;3.70;;;;;;;;;;5008408;28;20165;-78
2022/04/28 07:14:10;;;;;;;14.60;4.25;;;;;;;;;;5007675;28;20057;-77
2022/04/28 07:16:39;;;;;;;13.23;4.15;;;;;;;;;;5009348;28;20162;-77
2022/04/28 07:19:06;;;;;;;8.88;3.47;;;;;;;;;;5005079;28;20058;-77
2022/04/28 07:21:33;;;;;;;10.00;3.45;;;;;;;;;;5003004;28;20058;-77
2022/04/28 07:23:59;;;;;;;10.95;3.40;;;;;;;;;;5017301;28;20146;-77
2022/04/28 07:26:26;;;;;;;10.13;3.70;;;;;;;;;;5007791;28;20136;-78
2022/04/28 07:28:52;;;;;;;9.60;3.33;;;;;;;;;;5006258;28;20117;-77
2022/04/28 07:31:19;;;;;;;10.35;3.65;;;;;;;;;;5008390;28;20165;-77
2022/04/28 07:33:45;;;;;;;11.82;3.72;;;;;;;;;;5008603;28;20600;-77
2022/04/28 07:36:12;;;;;;;12.00;4.55;;;;;;;;;;5009020;28;20050;-77
2022/04/28 07:38:39;;;;;;;10.52;3.75;;;;;;;;;;5006610;28;20090;-78
2022/04/28 07:41:05;;;;;;;10.20;3.38;;;;;;;;;;5007581;28;21015;-77
2022/04/28 07:43:32;;;;;;;7.85;3.30;;;;;;;;;;5008902;28;20461;-77
2022/04/28 07:45:58;;;;;;;11.23;3.45;;;;;;;;;;5008119;28;20085;-77
2022/04/28 07:48:25;;;;;;;7.72;3.08;;;;;;;;;;5010114;28;20153;-77
2022/04/28 07:50:51;;;;;;;8.88;3.40;;;;;;;;;;5009731;28;20145;-78
2022/04/28 07:53:18;;;;;;;7.10;3.22;;;;;;;;;;5009495;28;20047;-77
2022/04/28 07:56:10;;;;;;;14.75;4.40;;;;;;;;;;5009928;28;20050;-77
2022/04/28 07:58:31;;;;;;;11.07;3.10;;;;;;;;;;5008931;28;20054;-77
2022/04/28 08:00:57;;;;;;;14.85;3.28;;;;;;;;;;5008349;28;20058;-78
2022/04/28 08:03:24;;;;;;;11.73;3.47;;;;;;;;;;5006676;28;20292;-77
2022/04/28 08:05:50;;;;;;;9.57;2.92;;;;;;;;;;5008150;28;20124;-77
2022/04/28 08:08:17;;;;;;;11.60;3.28;;;;;;;;;;5008451;28;20065;-77
2022/04/28 08:10:43;;;;;;;13.35;3.75;;;;;;;;;;5008993;28;20054;-78
2022/04/28 08:13:10;;;;;;;9.73;3.35;;;;;;;;;;5009010;28;21014;-78
2022/04/28 08:15:36;;;;;;;10.98;3.28;;;;;;;;;;5001780;28;20054;-77
2022/04/28 08:18:04;;;;;;;8.82;2.85;;;;;;;;;;5009241;28;20489;-77
2022/04/28 08:20:31;;;;;;;10.35;3.70;;;;;;;;;;5008711;28;20582;-78
2022/04/28 08:22:57;;;;;;;10.85;3.13;;;;;;;;;;5008413;28;20156;-77
2022/04/28 08:25:24;;;;;;;6.20;2.65;;;;;;;;;;5009437;28;20059;-78
2022/04/28 08:27:51;;;;;;;7.65;2.70;;;;;;;;;;5008051;28;20065;-77
2022/04/28 08:30:18;;;;;;;10.25;3.10;;;;;;;;;;5013256;28;20088;-77
2022/04/28 08:32:44;;;;;;;7.18;3.08;;;;;;;;;;5009382;28;20716;-77
2022/04/28 08:35:11;;;;;;;9.70;2.85;;;;;;;;;;5006400;28;20051;-77
2022/04/28 08:37:40;;;;;;;10.15;3.13;;;;;;;;;;5007258;28;20059;-76
2022/04/28 08:40:09;;;;;;;9.13;3.17;;;;;;;;;;5007003;28;20086;-76
2022/04/28 08:42:37;;;;;;;7.28;3.05;;;;;;;;;;5007447;28;20053;-77
2022/04/28 08:45:04;;;;;;;8.68;3.38;;;;;;;;;;5005509;28;20047;-76
2022/04/28 08:47:30;;;;;;;9.20;3.30;;;;;;;;;;5006318;28;20062;-77
2022/04/28 08:49:57;;;;;;;9.32;3.35;;;;;;;;;;5007296;28;20050;-77
2022/04/28 08:52:27;;;;;;;8.05;3.15;;;;;;;;;;5010012;28;20142;-77
2022/04/28 08:54:54;;;;;;;10.55;3.17;;;;;;;;;;5010005;28;20069;-77
2022/04/28 08:57:24;;;;;;;7.30;3.35;;;;;;;;;;5010668;28;20062;-77
2022/04/28 08:59:57;;;;;;;9.48;3.40;;;;;;;;;;5010652;28;20063;-78
2022/04/28 09:02:26;;;;;;;10.82;2.97;;;;;;;;;;5009862;28;20122;-77
2022/04/28 09:05:00;;;;;;;9.75;3.35;;;;;;;;;;5527225;22;20062;-76
2022/04/28 09:07:32;;;;;;;10.90;3.30;;;;;;;;;;5000032;28;20054;-76
2022/04/28 09:10:00;;;;;;;7.10;3.28;;;;;;;;;;5008120;28;20062;-76
2022/04/28 09:12:27;;;;;;;9.60;3.00;;;;;;;;;;5007510;28;20514;-76
2022/04/28 09:15:10;;;;;;;9.10;3.28;;;;;;;;;;5004399;28;20070;-76
2022/04/28 09:17:40;;;;;;;9.02;3.10;;;;;;;;;;5003871;28;20050;-76
2022/04/28 09:20:13;;;;;;;6.50;2.97;;;;;;;;;;5004917;28;20117;-76
2022/04/28 09:22:42;;;;;;;8.43;2.97;;;;;;;;;;5005880;28;20663;-76
2022/04/28 09:25:09;;;;;;;8.60;3.08;;;;;;;;;;5006089;28;20141;-77
2022/04/28 09:27:39;;;;;;;6.20;2.92;;;;;;;;;;5002079;28;20607;-77
2022/04/28 09:30:13;;;;;;;9.48;3.22;;;;;;;;;;5010684;28;20080;-76
2022/04/28 09:32:50;;;;;;;8.32;3.03;;;;;;;;;;5008655;28;20089;-77
2022/04/28 09:35:30;;;;;;;7.38;2.80;;;;;;;;;;5009849;28;20459;-76
2022/04/28 09:38:06;;;;;;;10.27;3.05;;;;;;;;;;5004624;28;20187;-77
2022/04/28 09:43:50;;;;;;;6.80;2.85;;;;;;;;;;5006231;28;20050;-77
2022/04/28 09:46:29;;;;;;;7.80;3.23;;;;;;;;;;5016740;28;20104;-77
2022/04/28 09:49:01;;;;;;;8.32;2.95;;;;;;;;;;5004758;28;20539;-77
2022/04/28 09:51:39;;;;;;;8.55;3.30;;;;;;;;;;5007126;28;20065;-77
2022/04/28 09:54:13;;;;;;;8.45;2.92;;;;;;;;;;5003075;28;20062;-77
2022/04/28 09:56:48;;;;;;;7.63;3.35;;;;;;;;;;5004960;28;20054;-76
2022/04/28 09:59:22;;;;;;;12.60;3.38;;;;;;;;;;5017854;28;20520;-76
2022/04/28 10:01:57;;;;;;;10.02;2.80;;;;;;;;;;5002821;28;20059;-77
2022/04/28 10:04:24;;;;;;;7.80;3.03;;;;;;;;;;5005165;28;20054;-77
2022/04/28 10:06:55;;;;;;;7.80;2.88;;;;;;;;;;4992264;28;20057;-76
2022/04/28 10:09:24;;;;;;;6.78;2.72;;;;;;;;;;5010877;28;20149;-77
2022/04/28 10:11:55;;;;;;;11.18;3.15;;;;;;;;;;5016738;28;20406;-77
2022/04/28 10:14:27;;;;;;;9.32;2.75;;;;;;;;;;5028428;28;20076;-78
2022/04/28 10:17:04;;;;;;;6.32;3.13;;;;;;;;;;5006583;28;20121;-78
2022/04/28 10:19:43;;;;;;;7.90;3.38;;;;;;;;;;5005854;28;20051;-77
2022/04/28 10:22:13;;;;;;;9.50;3.22;;;;;;;;;;5002466;28;20054;-76
2022/04/28 10:33:21;;;;;;;8.35;2.85;;;;;;;;;;5006599;28;20058;-77
2022/04/28 10:35:55;;;;;;;12.43;3.40;;;;;;;;;;5004922;28;20058;-77
2022/04/28 10:38:31;;;;;;;9.85;3.22;;;;;;;;;;5003694;28;20065;-77
2022/04/28 10:41:06;;;;;;;9.35;2.92;;;;;;;;;;5002301;28;20109;-77
2022/04/28 10:43:37;;;;;;;7.22;2.80;;;;;;;;;;5002120;28;20051;-77
2022/04/28 10:46:11;;;;;;;10.10;3.20;;;;;;;;;;5004542;28;20057;-77
2022/04/28 10:48:44;;;;;;;8.93;3.20;;;;;;;;;;5004268;28;20089;-77
2022/04/28 10:51:19;;;;;;;8.10;3.30;;;;;;;;;;5003113;28;20842;-77
2022/04/28 10:54:01;;;;;;;5.80;2.92;;;;;;;;;;5005227;28;20061;-77
2022/04/28 10:56:42;;;;;;;7.43;3.22;;;;;;;;;;5003601;28;20058;-77
2022/04/28 11:02:36;;;;;;;8.57;3.47;;;;;;;;;;5005811;28;20113;-77
2022/04/28 11:05:28;;;;;;;7.22;3.58;;;;;;;;;;4992053;28;20531;-77
2022/04/28 11:08:02;;;;;;;9.02;3.90;;;;;;;;;;5000423;28;20653;-77
2022/04/28 11:11:00;;;;;;;7.57;3.60;;;;;;;;;;5001726;28;20550;-76
2022/04/28 11:13:34;;;;;;;10.40;3.70;;;;;;;;;;5006803;28;20141;-76
2022/04/28 11:16:09;;;;;;;9.25;3.17;;;;;;;;;;5021164;28;20055;-77
2022/04/28 11:18:43;;;;;;;7.32;3.80;;;;;;;;;;5005568;28;20050;-77
2022/04/28 11:21:19;;;;;;;8.23;3.25;;;;;;;;;;5009841;28;20062;-76
2022/04/28 11:23:54;;;;;;;8.20;3.35;;;;;;;;;;5006549;28;20094;-76
2022/04/28 11:26:27;;;;;;;10.50;3.95;;;;;;;;;;5001546;28;20499;-76
2022/04/28 11:29:07;;;;;;;9.25;3.70;;;;;;;;;;5003409;28;20531;-76
2022/04/28 11:31:48;;;;;;;9.63;3.25;;;;;;;;;;5008496;28;20055;-76
2022/04/28 11:34:29;;;;;;;9.02;3.00;;;;;;;;;;5006822;28;20405;-76
2022/04/28 11:37:20;;;;;;;9.57;3.33;;;;;;;;;;5004153;28;20113;-77
2022/04/28 11:39:54;;;;;;;6.40;3.28;;;;;;;;;;5003697;28;20054;-77
2022/04/28 11:42:45;;;;;;;9.88;3.33;;;;;;;;;;5004645;28;20054;-78
2022/04/28 11:45:19;;;;;;;8.05;3.60;;;;;;;;;;4998036;28;20054;-77
2022/04/28 11:47:59;;;;;;;8.55;3.58;;;;;;;;;;5002389;28;20054;-77
2022/04/28 11:50:34;;;;;;;13.30;3.78;;;;;;;;;;5006200;28;20085;-78
2022/04/28 11:53:09;;;;;;;8.40;3.90;;;;;;;;;;5026012;28;20145;-79
2022/04/28 11:55:48;;;;;;;8.20;3.67;;;;;;;;;;5013256;28;20046;-79
2022/04/28 11:58:21;;;;;;;9.02;4.07;;;;;;;;;;5008032;28;20058;-76
2022/04/28 12:00:56;;;;;;;8.85;4.03;;;;;;;;;;5015583;28;20104;-76
2022/04/28 12:03:30;;;;;;;10.05;4.57;;;;;;;;;;5017556;28;20517;-76
2022/04/28 12:06:01;;;;;;;9.48;4.50;;;;;;;;;;5009483;28;20057;-75
2022/04/28 12:08:33;;;;;;;9.45;4.40;;;;;;;;;;5020422;28;20899;-78
2022/04/28 12:19:33;;;;;;;7.95;4.47;;;;;;;;;;5013294;28;20077;-78
2022/04/28 12:22:06;;;;;;;8.63;4.35;;;;;;;;;;5008976;28;20051;-78
2022/04/28 12:24:37;;;;;;;9.25;5.00;;;;;;;;;;5009067;28;20054;-78
2022/04/28 12:27:11;;;;;;;10.82;4.55;;;;;;;;;;5008893;28;20058;-78
2022/04/28 12:29:52;;;;;;;9.27;4.85;;;;;;;;;;5008615;28;20101;-78
2022/04/28 12:32:23;;;;;;;8.80;4.50;;;;;;;;;;5006626;28;20058;-78
2022/04/28 12:35:05;;;;;;;9.13;4.53;;;;;;;;;;5004607;28;20066;-77
2022/04/28 12:37:42;;;;;;;9.55;5.07;;;;;;;;;;5012188;28;20125;-77
2022/04/28 12:40:23;;;;;;;11.63;4.72;;;;;;;;;;5013330;28;20057;-77
2022/04/28 12:42:58;;;;;;;9.38;4.70;;;;;;;;;;5006479;28;20054;-77
2022/04/28 12:45:51;;;;;;;8.98;4.95;;;;;;;;;;5008630;28;20501;-77
2022/04/28 12:48:29;;;;;;;10.60;4.70;;;;;;;;;;5000031;28;20551;-77
2022/04/28 12:53:40;;;;;;;15.80;4.95;;;;;;;;;;5238417;22;20050;-77
2022/04/28 12:56:08;;;;;;;11.05;5.32;;;;;;;;;;5003402;28;20073;-76
2022/04/28 12:58:35;;;;;;;11.70;5.38;;;;;;;;;;4999310;28;20065;-76
2022/04/28 13:01:02;;;;;;;13.98;5.38;;;;;;;;;;5006666;28;20054;-77
2022/04/28 13:03:29;;;;;;;9.88;4.65;;;;;;;;;;4998793;28;20284;-77
2022/04/28 13:05:55;;;;;;;12.18;5.18;;;;;;;;;;5003475;28;20054;-77
2022/04/28 13:08:22;;;;;;;11.27;4.97;;;;;;;;;;5003821;28;20168;-77
2022/04/28 13:10:48;;;;;;;12.60;5.45;;;;;;;;;;5000258;28;20432;-77
2022/04/28 13:13:15;;;;;;;13.82;5.43;;;;;;;;;;4995602;28;20670;-77
2022/04/28 13:15:41;;;;;;;10.25;5.30;;;;;;;;;;5018614;28;20049;-77
2022/04/28 13:18:08;;;;;;;9.63;4.88;;;;;;;;;;5009339;28;20058;-77
2022/04/28 13:20:34;;;;;;;8.50;4.78;;;;;;;;;;5001252;28;20058;-77
2022/04/28 13:23:01;;;;;;;16.10;5.38;;;;;;;;;;5002749;28;20090;-76
2022/04/28 13:25:27;;;;;;;11.85;5.55;;;;;;;;;;5006072;28;20177;-78
2022/04/28 13:27:53;;;;;;;11.50;5.75;;;;;;;;;;5020671;28;20080;-77
2022/04/28 13:30:20;;;;;;;11.10;5.53;;;;;;;;;;5002467;28;20050;-77
2022/04/28 13:32:46;;;;;;;8.73;5.53;;;;;;;;;;5004147;28;20080;-77
2022/04/28 13:35:12;;;;;;;17.70;6.10;;;;;;;;;;5006779;28;20136;-77
2022/04/28 13:37:39;;;;;;;10.88;5.40;;;;;;;;;;5004806;28;20064;-77
2022/04/28 13:40:05;;;;;;;12.32;5.25;;;;;;;;;;5005065;28;20452;-77
2022/04/28 13:42:32;;;;;;;9.60;5.40;;;;;;;;;;5002972;28;20085;-78
2022/04/28 13:44:58;;;;;;;12.00;5.38;;;;;;;;;;5005530;28;20089;-78
2022/04/28 13:47:25;;;;;;;10.27;5.35;;;;;;;;;;5004901;28;20064;-77
2022/04/28 13:49:51;;;;;;;9.32;5.35;;;;;;;;;;5005482;28;20050;-77
2022/04/28 13:52:17;;;;;;;10.98;5.55;;;;;;;;;;5018993;28;20703;-77
2022/04/28 13:54:44;;;;;;;10.57;5.25;;;;;;;;;;5022354;28;20053;-80
2022/04/28 13:57:10;;;;;;;11.93;5.55;;;;;;;;;;5002922;28;20060;-78
2022/04/28 13:59:36;;;;;;;8.40;4.95;;;;;;;;;;5005429;28;20058;-79
2022/04/28 14:02:03;;;;;;;9.57;5.05;;;;;;;;;;5001002;28;20508;-79
2022/04/28 14:04:29;;;;;;;16.33;5.40;;;;;;;;;;4999648;28;20097;-80
2022/04/28 14:06:56;;;;;;;10.45;4.82;;;;;;;;;;5019386;28;20054;-79
2022/04/28 14:09:22;;;;;;;12.57;5.05;;;;;;;;;;5009693;28;20057;-78
2022/04/28 14:11:48;;;;;;;11.20;5.05;;;;;;;;;;5004981;28;20063;-79
2022/04/28 14:14:15;;;;;;;9.50;4.20;;;;;;;;;;5005383;28;20050;-76
2022/04/28 14:16:41;;;;;;;10.98;4.80;;;;;;;;;;5003126;28;20096;-78
2022/04/28 14:19:08;;;;;;;8.10;4.55;;;;;;;;;;5004261;28;20054;-79
2022/04/28 14:21:35;;;;;;;10.27;4.65;;;;;;;;;;5004409;28;20116;-79
2022/04/28 14:24:02;;;;;;;9.13;4.70;;;;;;;;;;5005561;28;20094;-79
2022/04/28 14:26:28;;;;;;;9.02;4.53;;;;;;;;;;5004061;28;20485;-79
2022/04/28 14:28:55;;;;;;;10.25;4.40;;;;;;;;;;5003652;28;20133;-78
2022/04/28 14:31:21;;;;;;;9.65;4.18;;;;;;;;;;5002917;28;20150;-78
2022/04/28 14:34:07;;;;;;;14.85;4.80;;;;;;;;;;5000963;28;20047;-78
2022/04/28 14:36:34;;;;;;;7.95;4.15;;;;;;;;;;5000623;28;20065;-80
2022/04/28 14:39:00;;;;;;;9.65;4.45;;;;;;;;;;5003859;28;20064;-79
2022/04/28 14:41:27;;;;;;;10.25;4.13;;;;;;;;;;5005189;28;20085;-79
2022/04/28 14:43:54;;;;;;;9.43;4.43;;;;;;;;;;5006387;28;20055;-78
2022/04/28 14:46:20;;;;;;;10.15;4.15;;;;;;;;;;5002127;28;20527;-78
2022/04/28 14:54:17;;;;;;;11.23;4.30;;;;;;;;;;5005189;28;20062;-78
2022/04/28 14:56:43;;;;;;;10.05;4.15;;;;;;;;;;5004592;28;20058;-79
2022/04/28 14:59:09;;;;;;;9.32;4.28;;;;;;;;;;5002362;28;20148;-78
2022/04/28 15:01:36;;;;;;;9.88;3.95;;;;;;;;;;5004873;28;20491;-78
2022/04/28 15:04:03;;;;;;;9.10;3.75;;;;;;;;;;5003430;28;20101;-79
2022/04/28 15:06:29;;;;;;;9.23;3.75;;;;;;;;;;5004654;28;20432;-78
2022/04/28 15:08:56;;;;;;;8.63;3.97;;;;;;;;;;5003050;28;20651;-78
2022/04/28 15:11:23;;;;;;;9.35;4.55;;;;;;;;;;5003631;28;20487;-79
2022/04/28 15:13:49;;;;;;;11.32;4.70;;;;;;;;;;5003109;28;20588;-78
2022/04/28 15:16:16;;;;;;;10.02;4.13;;;;;;;;;;5016638;28;20539;-78
2022/04/28 15:18:44;;;;;;;10.77;3.85;;;;;;;;;;5002495;28;20058;-78
2022/04/28 15:21:11;;;;;;;13.85;4.97;;;;;;;;;;5003433;28;20124;-78
2022/04/28 15:23:37;;;;;;;10.20;4.00;;;;;;;;;;5002728;28;20082;-78
2022/04/28 15:26:03;;;;;;;10.52;3.65;;;;;;;;;;5003672;28;20065;-78
2022/04/28 15:28:29;;;;;;;7.47;3.80;;;;;;;;;;5005063;28;20055;-80
2022/04/28 15:30:56;;;;;;;9.75;3.97;;;;;;;;;;5000278;28;20153;-78
2022/04/28 15:33:23;;;;;;;9.43;3.58;;;;;;;;;;5010736;28;20054;-78
2022/04/28 15:35:51;;;;;;;12.10;3.90;;;;;;;;;;5003565;28;20524;-79
2022/04/28 15:38:18;;;;;;;11.30;3.90;;;;;;;;;;5010572;28;20246;-79
2022/04/28 15:40:44;;;;;;;7.38;3.53;;;;;;;;;;5001906;28;20443;-78